LDZD/ZAD METAR and TAF weather

Enter ICAO airport designator
Station Type Date Time Source
LDZD METAR 2019/04/19 10:30 UTC NOAA

LDZD 191030Z VRB03KT 9999 FEW060 21/03 Q1028 BECMG 28008KT


Station Type Date Time Source
LDZD Decoded METAR 2019/04/19 10:30 UTC NOAA

Zadar / Zemunik, Croatia (LDZD) 44-06N 015-21E
Apr 19, 2019 - 06:30 AM EDT / 2019.04.19 1030 UTC
Wind: Variable at 3 MPH (3 KT):0
Visibility: greater than 7 mile(s):0
Sky conditions: mostly clear
Temperature: 69 F (21 C)
Dew Point: 37 F (3 C)
Relative Humidity: 30%
Pressure (altimeter): 30.36 in. Hg (1028 hPa)
ob: LDZD 191030Z VRB03KT 9999 FEW060 21/03 Q1028 BECMG 28008KT
cycle: 10

Station Type Date Time Source
LDZD TAF 2019/04/19 06:30 UTC NOAA

TAF LDZD 190525Z 1906/2006 06006KT CAVOK TX22/1912Z TN08/2004Z
BECMG 1911/1913 30012KT
BECMG 1917/1919 06006KT

Example: see airport list